Time;durP1;ratioP1;P1;durP2;ratioP2;P2;SDS_P1;SDS_P2;PMS_P1;PMS_P2;Temp;Humidity;BMP_temperature;BMP_pressure;BME280_temperature;BME280_humidity;BME280_pressure;Samples;Min_cycle;Max_cycle;Signal;HPM_P1;HPM_P2
2021/04/21 00:02:12;;;;;;;10.80;2.72;;;;;;;19.52;32.38;101988.88;5069948;28;20379;-74
2021/04/21 00:04:38;;;;;;;15.73;3.20;;;;;;;20.04;31.49;101991.03;5071232;28;20078;-74
2021/04/21 00:07:05;;;;;;;19.17;3.72;;;;;;;20.27;31.13;101987.78;5069615;28;20124;-74
2021/04/21 00:09:30;;;;;;;12.85;3.13;;;;;;;20.35;30.88;101984.88;5071002;28;20028;-74
2021/04/21 00:11:57;;;;;;;13.40;4.10;;;;;;;20.35;30.95;101986.84;5069879;28;20836;-74
2021/04/21 00:14:25;;;;;;;10.55;2.92;;;;;;;20.47;30.93;101987.63;5071060;28;20052;-74
2021/04/21 00:16:59;;;;;;;13.48;3.47;;;;;;;20.55;30.95;101982.31;5075249;28;20527;-74
2021/04/21 00:19:27;;;;;;;13.00;2.65;;;;;;;20.62;30.79;101977.75;5073623;28;20086;-74
2021/04/21 00:21:56;;;;;;;9.63;2.92;;;;;;;20.65;31.12;101982.63;5073609;28;20371;-74
2021/04/21 00:24:22;;;;;;;11.15;2.80;;;;;;;20.63;30.82;101978.56;5074671;28;20102;-74
2021/04/21 00:26:48;;;;;;;10.88;3.67;;;;;;;20.75;30.76;101982.13;5074365;28;20027;-74
2021/04/21 00:29:16;;;;;;;14.68;3.38;;;;;;;20.60;30.86;101973.72;5074633;28;20461;-74
2021/04/21 00:31:48;;;;;;;11.55;3.55;;;;;;;20.12;31.70;101978.19;5074615;28;20082;-74
2021/04/21 00:34:18;;;;;;;10.35;3.42;;;;;;;19.92;31.92;101977.97;5074590;28;20028;-73
2021/04/21 00:36:47;;;;;;;14.68;3.58;;;;;;;20.32;31.08;101974.44;5074593;28;20033;-74
2021/04/21 00:39:15;;;;;;;9.40;3.53;;;;;;;20.12;31.36;101969.88;5074446;28;20029;-74
2021/04/21 00:41:49;;;;;;;14.48;3.75;;;;;;;20.17;31.19;101975.16;5074564;28;20424;-74
2021/04/21 00:44:30;;;;;;;11.07;3.13;;;;;;;19.84;31.81;101975.31;5074311;28;20115;-74
2021/04/21 00:47:03;;;;;;;11.75;4.43;;;;;;;19.91;31.72;101972.75;5074293;28;20036;-74
2021/04/21 00:49:39;;;;;;;10.23;3.50;;;;;;;19.92;31.60;101972.41;5073169;28;20506;-74
2021/04/21 00:52:10;;;;;;;10.00;3.70;;;;;;;19.93;31.53;101968.47;5074331;28;20437;-74
2021/04/21 00:54:47;;;;;;;15.82;3.78;;;;;;;19.91;31.65;101964.44;5074228;28;20033;-75
2021/04/21 00:57:27;;;;;;;8.98;3.33;;;;;;;19.79;31.84;101970.78;5074564;28;20390;-74
2021/04/21 01:00:13;;;;;;;12.88;3.53;;;;;;;19.98;31.48;101964.66;5074191;28;20033;-74
2021/04/21 01:02:53;;;;;;;11.80;4.05;;;;;;;19.52;32.08;101972.25;5073514;28;20036;-74
2021/04/21 01:05:24;;;;;;;10.25;2.67;;;;;;;19.61;32.39;101967.44;5071914;28;20029;-75
2021/04/21 01:07:53;;;;;;;9.88;3.28;;;;;;;19.92;31.78;101969.63;5073794;28;20668;-75
2021/04/21 01:10:20;;;;;;;10.93;2.90;;;;;;;19.99;31.63;101966.28;5072472;28;20110;-74
2021/04/21 01:12:48;;;;;;;13.43;4.40;;;;;;;19.85;31.70;101963.84;5073814;28;20382;-74
2021/04/21 01:15:16;;;;;;;21.13;4.78;;;;;;;19.81;31.88;101953.81;5074163;28;20414;-74
2021/04/21 01:17:44;;;;;;;11.27;5.57;;;;;;;19.67;32.23;101960.50;5073895;28;20386;-75
2021/04/21 01:20:26;;;;;;;14.93;6.40;;;;;;;19.64;32.07;101965.91;5073854;28;20479;-74
2021/04/21 01:23:34;;;;;;;20.95;6.38;;;;;;;19.53;32.36;101965.53;5073897;28;20020;-74
2021/04/21 01:26:25;;;;;;;15.82;7.47;;;;;;;19.49;32.30;101963.78;5073254;28;20029;-74
2021/04/21 01:28:53;;;;;;;21.30;8.48;;;;;;;19.41;32.47;101969.09;5073558;28;20491;-74
2021/04/21 01:31:22;;;;;;;13.43;7.18;;;;;;;19.44;32.17;101969.56;5074484;28;20043;-75
2021/04/21 01:33:51;;;;;;;15.65;7.80;;;;;;;19.41;32.25;101968.28;5073893;28;20044;-74
2021/04/21 01:36:21;;;;;;;11.80;6.77;;;;;;;19.39;32.41;101965.84;5074458;28;20387;-75
2021/04/21 01:38:48;;;;;;;15.35;6.32;;;;;;;19.32;32.47;101962.84;5072952;28;20744;-74
2021/04/21 01:41:18;;;;;;;11.65;5.25;;;;;;;19.30;32.50;101964.34;5073910;28;20031;-74
2021/04/21 01:43:51;;;;;;;13.57;4.25;;;;;;;18.80;33.25;101970.84;5073167;28;20031;-74
2021/04/21 01:46:19;;;;;;;14.93;5.15;;;;;;;18.79;33.00;101967.25;5072971;28;20032;-74
2021/04/21 01:48:48;;;;;;;14.15;4.00;;;;;;;19.08;32.71;101965.53;5073834;28;20028;-74
2021/04/21 01:51:31;;;;;;;13.30;4.57;;;;;;;19.00;33.16;101961.72;5073820;28;20029;-74
2021/04/21 01:54:07;;;;;;;9.35;3.80;;;;;;;18.94;32.67;101960.28;5073541;28;20027;-74
2021/04/21 01:56:41;;;;;;;10.70;4.03;;;;;;;18.88;32.87;101960.84;5074067;28;20032;-74
2021/04/21 01:59:35;;;;;;;10.63;3.65;;;;;;;18.91;32.68;101962.94;5073783;28;20048;-74
2021/04/21 02:02:13;;;;;;;11.00;3.40;;;;;;;18.91;32.47;101960.97;5073213;28;20467;-74
2021/04/21 02:04:47;;;;;;;15.05;4.00;;;;;;;18.76;32.75;101965.19;5073780;28;20387;-74
2021/04/21 02:07:22;;;;;;;12.85;4.10;;;;;;;18.76;32.60;101959.66;5073525;28;20048;-74
2021/04/21 02:10:00;;;;;;;15.50;4.50;;;;;;;18.49;33.31;101954.63;5072307;28;20021;-74
2021/04/21 02:12:51;;;;;;;18.00;4.10;;;;;;;18.46;33.29;101961.66;5073577;28;20017;-74
2021/04/21 02:15:33;;;;;;;10.55;4.03;;;;;;;18.55;32.98;101959.63;5073461;28;20020;-74
2021/04/21 02:18:33;;;;;;;11.55;3.63;;;;;;;18.58;32.98;101955.34;5071722;28;20449;-74
2021/04/21 02:21:26;;;;;;;15.07;4.40;;;;;;;18.59;32.87;101951.47;5073381;28;20031;-74
2021/04/21 02:24:04;;;;;;;11.73;2.90;;;;;;;18.59;32.92;101951.47;5073455;28;20542;-74
2021/04/21 02:26:42;;;;;;;9.25;3.50;;;;;;;18.58;32.92;101949.81;5073152;28;20067;-74
2021/04/21 02:29:20;;;;;;;12.55;3.97;;;;;;;18.53;32.76;101948.09;5072733;28;20734;-74
2021/04/21 02:32:23;;;;;;;14.50;4.15;;;;;;;18.43;33.15;101950.44;5072538;28;20025;-75
2021/04/21 02:35:08;;;;;;;11.65;4.00;;;;;;;18.46;32.92;101947.00;5072446;28;20024;-74
2021/04/21 02:38:13;;;;;;;17.50;4.68;;;;;;;18.37;32.99;101955.38;5072008;28;20028;-74
2021/04/21 02:40:50;;;;;;;18.67;5.07;;;;;;;18.31;33.30;101953.94;5052697;28;20036;-74
2021/04/21 02:43:26;;;;;;;10.23;3.60;;;;;;;18.32;33.06;101960.28;5070948;28;20032;-74
2021/04/21 02:46:03;;;;;;;11.45;3.75;;;;;;;18.26;33.13;101956.91;5066965;28;20093;-74
2021/04/21 02:49:13;;;;;;;16.80;4.43;;;;;;;18.27;33.25;101956.56;5070843;28;20039;-74
2021/04/21 02:51:49;;;;;;;10.38;4.07;;;;;;;18.33;33.15;101954.41;5047975;28;20033;-75
2021/04/21 02:54:49;;;;;;;13.27;4.00;;;;;;;18.44;32.63;101957.56;5068729;28;20055;-75
2021/04/21 02:57:23;;;;;;;;;;;;;;;18.37;32.94;101960.09;5051831;28;20376;-75
2021/04/21 03:00:03;;;;;;;11.25;3.95;;;;;;;18.42;32.79;101966.22;5071856;28;19912;-74
2021/04/21 03:02:32;;;;;;;10.40;3.65;;;;;;;18.43;32.60;101967.03;5071262;28;20029;-75
2021/04/21 03:05:24;;;;;;;9.88;3.50;;;;;;;18.36;32.71;101964.00;5071786;28;20062;-74
2021/04/21 03:08:06;;;;;;;12.73;3.55;;;;;;;18.40;32.73;101962.19;5069003;28;20059;-74
2021/04/21 03:10:41;;;;;;;14.52;4.65;;;;;;;18.35;32.74;101963.19;5071894;28;20039;-74
2021/04/21 03:13:15;;;;;;;12.77;3.53;;;;;;;18.32;32.82;101957.53;5072160;28;20482;-74
2021/04/21 03:15:46;;;;;;;13.52;3.97;;;;;;;18.29;32.78;101961.78;5072582;28;20048;-74
2021/04/21 03:18:22;;;;;;;13.02;4.22;;;;;;;18.22;32.88;101955.97;5071832;28;20023;-74
2021/04/21 03:20:56;;;;;;;13.13;3.83;;;;;;;18.25;32.88;101952.53;5071736;28;20032;-74
2021/04/21 03:23:22;;;;;;;12.98;4.03;;;;;;;18.19;32.89;101956.63;5071713;28;20043;-74
2021/04/21 03:25:54;;;;;;;13.10;4.22;;;;;;;17.99;33.20;101952.69;5070406;28;20025;-74
2021/04/21 03:28:21;;;;;;;12.60;3.58;;;;;;;17.93;33.36;101957.59;5070707;28;20044;-74
2021/04/21 03:30:51;;;;;;;12.75;3.95;;;;;;;17.90;33.46;101955.47;5071990;28;20028;-74
2021/04/21 03:33:21;;;;;;;11.45;4.53;;;;;;;17.83;33.36;101957.13;5072114;28;20032;-74
2021/04/21 03:35:50;;;;;;;17.67;5.05;;;;;;;17.83;33.36;101957.13;5071818;28;20033;-75
2021/04/21 03:38:16;;;;;;;12.35;3.72;;;;;;;17.81;33.34;101963.00;5071554;28;20029;-74
2021/04/21 03:40:42;;;;;;;18.27;4.22;;;;;;;17.78;33.35;101963.69;5071592;28;20532;-74
2021/04/21 03:43:09;;;;;;;13.68;5.18;;;;;;;17.68;33.13;101952.94;5071515;28;20055;-74
2021/04/21 03:45:35;;;;;;;15.63;4.78;;;;;;;17.65;33.34;101959.16;5070528;28;20120;-74
2021/04/21 03:48:03;;;;;;;11.75;4.22;;;;;;;17.63;33.52;101956.72;5070870;28;20471;-74
2021/04/21 03:50:30;;;;;;;15.82;4.40;;;;;;;17.70;33.42;101951.53;5075271;28;20394;-74
2021/04/21 03:53:05;;;;;;;8.95;4.35;;;;;;;17.72;33.46;101951.19;5076236;28;20025;-74
2021/04/21 03:55:33;;;;;;;9.05;3.78;;;;;;;17.91;33.12;101953.53;5075639;28;20048;-74
2021/04/21 03:58:05;;;;;;;20.85;4.50;;;;;;;18.05;32.94;101956.84;5073524;28;20021;-74
2021/04/21 04:00:34;;;;;;;8.70;3.33;;;;;;;18.15;32.98;101953.72;5075731;28;20111;-74
2021/04/21 04:03:04;;;;;;;13.25;4.05;;;;;;;18.15;33.03;101956.50;5073933;28;20036;-74
2021/04/21 04:05:38;;;;;;;11.98;4.30;;;;;;;18.16;33.26;101962.84;5073938;28;20110;-74
2021/04/21 04:08:08;;;;;;;15.98;4.20;;;;;;;18.17;33.17;101958.91;5075099;28;20079;-74
2021/04/21 04:10:36;;;;;;;8.18;3.38;;;;;;;18.21;33.26;101957.94;5075235;28;20028;-74
2021/04/21 04:13:10;;;;;;;13.77;4.07;;;;;;;18.17;33.63;101967.22;5075822;28;20024;-74
2021/04/21 04:15:36;;;;;;;15.57;4.65;;;;;;;18.18;33.57;101958.56;5075713;28;20028;-74
2021/04/21 04:18:05;;;;;;;13.55;4.90;;;;;;;18.21;33.33;101957.94;5075539;28;20483;-74
2021/04/21 04:20:33;;;;;;;13.18;5.03;;;;;;;18.16;33.52;101962.84;5057348;28;20028;-74
2021/04/21 04:23:04;;;;;;;12.85;4.28;;;;;;;18.28;33.70;101963.72;5074307;28;20485;-74
2021/04/21 04:25:33;;;;;;;11.55;4.45;;;;;;;18.44;33.33;101963.13;5075555;28;20021;-74
2021/04/21 04:28:00;;;;;;;17.17;4.22;;;;;;;18.43;33.45;101955.97;5075277;28;20049;-74
2021/04/21 04:30:26;;;;;;;10.27;4.28;;;;;;;18.47;33.37;101960.50;5075476;28;20121;-74
2021/04/21 04:32:57;;;;;;;13.48;4.28;;;;;;;18.52;33.45;101959.50;5075525;28;20026;-75
2021/04/21 04:35:23;;;;;;;16.33;4.72;;;;;;;18.51;33.38;101957.84;5075416;28;20024;-74
2021/04/21 04:37:49;;;;;;;8.93;3.55;;;;;;;18.58;33.49;101960.88;5074071;28;20028;-74
2021/04/21 04:40:15;;;;;;;15.73;4.70;;;;;;;18.57;33.45;101964.81;5075236;28;20016;-74
2021/04/21 04:42:42;;;;;;;13.18;4.18;;;;;;;18.66;33.57;101962.81;5075131;28;20038;-74
2021/04/21 04:45:09;;;;;;;25.48;5.18;;;;;;;18.55;34.01;101956.84;5074394;28;20032;-74
2021/04/21 04:47:57;;;;;;;14.60;4.13;;;;;;;18.66;34.13;101960.03;5074290;28;20064;-74
2021/04/21 04:50:24;;;;;;;11.73;4.55;;;;;;;18.73;34.04;101960.31;5074406;28;20478;-75
2021/04/21 04:52:55;;;;;;;14.48;4.65;;;;;;;18.84;33.88;101960.72;5074558;28;20475;-74
2021/04/21 04:55:23;;;;;;;15.68;5.45;;;;;;;18.91;33.81;101960.19;5075043;28;20025;-74
2021/04/21 04:57:51;;;;;;;13.50;5.13;;;;;;;18.76;33.83;101961.59;5074961;28;20024;-74
2021/04/21 05:00:22;;;;;;;12.23;5.10;;;;;;;18.94;33.90;101953.94;5074464;28;20020;-74
2021/04/21 05:03:22;;;;;;;13.00;4.35;;;;;;;18.94;34.00;101962.25;5074728;28;20017;-74
2021/04/21 05:05:53;;;;;;;22.13;6.47;;;;;;;19.07;34.16;101956.44;5074922;28;20029;-74
2021/04/21 05:08:21;;;;;;;18.73;6.03;;;;;;;19.07;34.29;101959.19;5073333;28;20032;-74
2021/04/21 05:10:56;;;;;;;13.15;5.43;;;;;;;19.19;33.89;101952.06;5073833;28;20104;-74
2021/04/21 05:13:24;;;;;;;16.20;6.72;;;;;;;19.12;34.41;101950.69;5073398;28;20020;-74
2021/04/21 05:15:53;;;;;;;17.15;6.95;;;;;;;19.27;34.52;101948.38;5072058;28;20040;-74
2021/04/21 05:19:09;;;;;;;21.90;6.50;;;;;;;19.26;34.88;101950.34;5073327;28;20024;-75
2021/04/21 05:21:46;;;;;;;22.13;7.30;;;;;;;19.23;34.96;101953.81;5068230;28;20045;-75
2021/04/21 05:24:43;;;;;;;15.05;6.93;;;;;;;18.89;35.50;101946.66;5071336;28;20027;-74
2021/04/21 05:27:15;;;;;;;18.33;7.13;;;;;;;19.28;34.98;101959.16;5068712;28;20052;-74
2021/04/21 05:30:05;;;;;;;22.38;7.22;;;;;;;19.37;35.18;101970.94;5072153;28;20021;-74
2021/04/21 05:33:08;;;;;;;16.10;7.75;;;;;;;19.55;34.90;101962.41;5069758;28;20562;-74
2021/04/21 05:36:04;;;;;;;14.73;7.03;;;;;;;19.30;35.53;101965.16;5071468;28;20091;-73
2021/04/21 05:39:03;;;;;;;21.02;8.40;;;;;;;19.52;35.32;101969.47;5056941;28;20088;-74
2021/04/21 05:41:53;;;;;;;19.77;7.87;;;;;;;19.50;35.34;101966.25;5056006;28;20047;-74
2021/04/21 05:44:57;;;;;;;35.28;9.68;;;;;;;19.40;35.74;101964.69;5055973;28;20272;-74
2021/04/21 05:47:40;;;;;;;24.15;9.00;;;;;;;19.49;35.87;101967.38;5055936;28;20035;-74
2021/04/21 05:50:43;;;;;;;18.42;8.77;;;;;;;19.03;38.67;101962.97;5055343;28;20074;-74
2021/04/21 05:53:31;;;;;;;19.25;9.07;;;;;;;18.71;40.57;101968.16;5056503;28;20495;-75
2021/04/21 05:56:02;;;;;;;19.90;7.93;;;;;;;18.94;40.84;101973.34;5054423;28;20020;-73
2021/04/21 05:58:56;;;;;;;17.50;8.68;;;;;;;19.06;40.99;101970.63;5052717;28;20036;-73
2021/04/21 06:01:36;;;;;;;19.90;8.98;;;;;;;18.71;41.96;101975.66;5052103;28;20039;-73
2021/04/21 06:04:02;;;;;;;29.17;8.82;;;;;;;19.55;40.14;101985.41;5035534;28;20029;-74
2021/04/21 06:06:29;;;;;;;18.60;9.98;;;;;;;19.53;40.33;101984.13;5055381;28;20571;-73
2021/04/21 06:08:55;;;;;;;22.35;10.25;;;;;;;19.51;40.55;101978.13;5052608;28;20235;-76
2021/04/21 06:11:29;;;;;;;20.10;9.73;;;;;;;19.62;40.58;101979.31;5063048;28;20121;-74
2021/04/21 06:13:57;;;;;;;26.65;9.52;;;;;;;19.58;40.72;101990.31;5070752;28;20472;-74
2021/04/21 06:16:24;;;;;;;22.38;9.40;;;;;;;19.64;40.48;101979.78;5070724;28;20032;-72
2021/04/21 06:18:54;;;;;;;18.10;6.88;;;;;;;19.52;40.58;101976.97;5070097;28;20471;-79
2021/04/21 06:21:22;;;;;;;20.08;8.05;;;;;;;19.57;40.62;101990.63;5071315;28;20032;-78
2021/04/21 06:23:48;;;;;;;24.13;8.75;;;;;;;19.43;41.08;101987.34;5068221;28;20033;-79
2021/04/21 06:26:25;;;;;;;32.63;10.68;;;;;;;19.51;40.90;101992.00;5071953;28;20494;-75
2021/04/21 06:28:59;;;;;;;21.85;10.48;;;;;;;19.41;41.03;101988.47;5069956;28;20052;-77
2021/04/21 06:31:42;;;;;;;21.98;8.60;;;;;;;19.74;40.71;101993.22;5070516;28;20620;-73
2021/04/21 06:34:08;;;;;;;21.60;9.13;;;;;;;19.92;40.38;101977.16;5071906;28;20039;-74
2021/04/21 06:36:41;;;;;;;25.30;9.55;;;;;;;19.85;40.72;101985.25;5068565;28;20035;-74
2021/04/21 06:39:08;;;;;;;26.60;9.98;;;;;;;19.85;40.79;101994.38;5069841;28;20043;-78
2021/04/21 06:41:34;;;;;;;34.15;10.32;;;;;;;20.07;40.49;101995.88;5072022;28;20024;-74
2021/04/21 06:44:00;;;;;;;31.52;11.82;;;;;;;20.06;40.62;101999.00;5072985;28;20078;-73
2021/04/21 06:46:26;;;;;;;36.10;11.63;;;;;;;19.82;41.14;101997.03;5072945;28;20020;-74
2021/04/21 06:48:57;;;;;;;26.20;13.77;;;;;;;20.26;40.50;101992.53;5058947;28;20024;-76
2021/04/21 06:51:28;;;;;;;30.02;10.95;;;;;;;20.39;40.26;101998.84;5055398;28;20032;-75
2021/04/21 06:53:54;;;;;;;35.47;13.63;;;;;;;20.33;40.48;102003.00;5059185;28;20035;-75
2021/04/21 06:56:29;;;;;;;42.25;15.38;;;;;;;20.32;40.27;101995.84;5055108;28;20028;-76
2021/04/21 06:58:55;;;;;;;32.20;12.55;;;;;;;20.59;39.77;102000.69;5056019;28;20035;-75
2021/04/21 07:01:30;;;;;;;27.35;11.93;;;;;;;20.82;39.43;102000.16;5072703;28;20031;-75
2021/04/21 07:04:17;;;;;;;23.88;13.15;;;;;;;20.92;39.24;101997.69;5072713;28;20149;-74
2021/04/21 07:06:44;;;;;;;42.60;16.98;;;;;;;20.92;39.40;102008.81;5072464;28;20025;-75
2021/04/21 07:09:20;;;;;;;34.28;15.30;;;;;;;20.81;39.45;102004.13;5072512;28;20029;-73
2021/04/21 07:11:54;;;;;;;33.17;17.02;;;;;;;20.96;39.28;102006.94;5072452;28;20043;-73
2021/04/21 07:14:21;;;;;;;27.02;15.05;;;;;;;21.16;38.83;102013.47;5072649;28;20012;-73
2021/04/21 07:16:52;;;;;;;29.15;16.88;;;;;;;21.29;38.90;102017.81;5072506;28;20031;-73
2021/04/21 07:19:18;;;;;;;39.25;19.90;;;;;;;21.21;38.77;102023.50;5071158;28;20028;-75
2021/04/21 07:21:44;;;;;;;43.55;23.50;;;;;;;21.44;38.50;102018.22;5072368;28;20021;-75
2021/04/21 07:24:15;;;;;;;30.63;21.95;;;;;;;21.68;37.94;102020.84;5071132;28;20088;-73
2021/04/21 07:26:43;;;;;;;39.63;27.25;;;;;;;21.51;38.17;102019.22;5072633;28;20028;-75
2021/04/21 07:29:17;;;;;;;49.78;29.33;;;;;;;20.86;38.84;102021.34;5070950;28;20052;-81
2021/04/21 07:31:42;;;;;;;48.15;31.52;;;;;;;20.98;38.79;102024.06;5054732;28;20113;-77
2021/04/21 07:34:25;;;;;;;50.38;30.27;;;;;;;21.14;37.84;102026.09;5072578;28;20104;-77
2021/04/21 07:36:51;;;;;;;55.60;33.65;;;;;;;21.29;37.91;102036.47;5070422;28;20031;-79
2021/04/21 07:39:16;;;;;;;39.20;28.98;;;;;;;21.17;38.27;102034.53;5054681;28;20024;-76
2021/04/21 07:41:44;;;;;;;55.03;28.98;;;;;;;21.12;38.46;102042.31;5055091;28;20118;-78
2021/04/21 07:44:25;;;;;;;37.97;24.20;;;;;;;21.45;37.75;102042.06;5054453;28;20024;-75
2021/04/21 07:47:13;;;;;;;38.63;24.67;;;;;;;21.54;37.22;102040.75;5054511;28;20024;-76
2021/04/21 07:49:54;;;;;;;51.92;26.42;;;;;;;21.40;37.30;102048.72;5051476;28;20577;-75
2021/04/21 07:52:27;;;;;;;38.22;23.45;;;;;;;21.74;36.71;102052.78;5054020;28;20029;-75
2021/04/21 07:55:05;;;;;;;32.50;22.77;;;;;;;21.74;36.55;102054.78;5055649;28;20086;-75
2021/04/21 07:57:30;;;;;;;40.15;24.50;;;;;;;21.80;36.54;102047.78;5054581;28;20032;-75
2021/04/21 07:59:56;;;;;;;42.35;23.08;;;;;;;21.62;36.86;102049.28;5055031;28;20025;-76
2021/04/21 08:02:22;;;;;;;37.17;23.05;;;;;;;21.75;36.72;102053.59;5055078;28;20094;-75
2021/04/21 08:05:11;;;;;;;35.90;23.35;;;;;;;21.69;37.01;102058.63;5053823;28;20040;-76
2021/04/21 08:07:41;;;;;;;37.72;23.45;;;;;;;21.99;36.43;102042.31;5064612;28;20104;-80
2021/04/21 08:10:28;;;;;;;29.95;21.23;;;;;;;21.97;36.33;102063.31;5072116;28;20052;-77
2021/04/21 08:13:00;;;;;;;33.30;23.95;;;;;;;22.02;36.01;102063.84;5070635;28;20504;-75
2021/04/21 08:15:43;;;;;;;40.55;21.67;;;;;;;21.63;36.47;102062.03;5070726;28;20031;-78
2021/04/21 08:18:14;;;;;;;35.65;21.80;;;;;;;22.07;35.90;102060.00;5070704;28;20051;-76
2021/04/21 08:20:51;;;;;;;36.08;22.00;;;;;;;22.41;35.41;102050.09;5072027;28;20356;-77
2021/04/21 08:23:19;;;;;;;28.95;20.52;;;;;;;22.22;36.01;102058.38;5070013;28;20016;-80
2021/04/21 08:25:45;;;;;;;35.58;20.77;;;;;;;22.43;35.54;102075.59;5071926;28;20418;-75
2021/04/21 08:28:10;;;;;;;35.53;20.55;;;;;;;22.24;35.88;102068.00;5071683;28;20043;-75
2021/04/21 08:30:36;;;;;;;26.75;20.33;;;;;;;22.16;35.85;102069.00;5071684;28;20029;-80
2021/04/21 08:33:03;;;;;;;28.00;20.23;;;;;;;22.23;35.99;102076.72;5071905;28;20387;-79
2021/04/21 08:35:28;;;;;;;40.38;21.25;;;;;;;22.36;35.80;102081.00;5073215;28;20025;-77
2021/04/21 08:37:54;;;;;;;27.15;19.60;;;;;;;22.68;35.54;102074.22;5075459;28;20382;-75
2021/04/21 08:40:24;;;;;;;34.03;19.35;;;;;;;22.57;35.58;102077.91;5075263;28;20031;-75
2021/04/21 08:42:58;;;;;;;24.73;17.80;;;;;;;22.54;35.41;102087.81;5075152;28;20355;-75
2021/04/21 08:45:24;;;;;;;29.08;18.13;;;;;;;22.41;35.55;102083.53;5072565;28;20475;-79
2021/04/21 08:47:51;;;;;;;31.20;18.58;;;;;;;22.49;35.63;102090.88;5074866;28;20024;-79
2021/04/21 08:50:17;;;;;;;29.73;18.08;;;;;;;22.46;35.59;102088.81;5074837;28;20060;-75
2021/04/21 08:52:49;;;;;;;25.48;17.05;;;;;;;22.07;35.82;102088.66;5072282;28;20016;-75
2021/04/21 08:55:17;;;;;;;25.95;16.48;;;;;;;22.25;35.35;102091.09;5073644;28;20033;-80
2021/04/21 08:57:47;;;;;;;23.60;15.52;;;;;;;22.73;35.14;102081.47;5075072;28;20108;-75
2021/04/21 09:00:15;;;;;;;25.05;14.45;;;;;;;22.14;35.73;102094.41;5073380;28;20024;-81
2021/04/21 09:02:41;;;;;;;29.13;15.02;;;;;;;22.00;35.83;102096.81;5075001;28;20086;-77
2021/04/21 09:05:08;;;;;;;26.38;16.38;;;;;;;21.95;35.98;102105.41;5075087;28;20024;-76
2021/04/21 09:07:38;;;;;;;23.45;14.68;;;;;;;22.07;35.63;102098.97;5074006;28;20055;-75
2021/04/21 09:10:08;;;;;;;23.20;12.85;;;;;;;22.75;34.47;102095.03;5074973;28;20017;-75
2021/04/21 09:12:33;;;;;;;20.98;12.98;;;;;;;22.65;34.76;102096.41;5074293;28;20029;-82
2021/04/21 09:14:59;;;;;;;24.35;14.43;;;;;;;23.05;34.12;102101.75;5074765;28;20028;-75
2021/04/21 09:17:25;;;;;;;19.65;12.13;;;;;;;23.16;34.02;102088.81;5074640;28;20024;-76
2021/04/21 09:19:51;;;;;;;16.17;10.57;;;;;;;22.62;34.61;102108.28;5074568;28;20447;-76
2021/04/21 09:22:17;;;;;;;30.55;13.35;;;;;;;22.73;34.21;102111.31;5074685;28;20052;-76
2021/04/21 09:24:43;;;;;;;27.23;12.65;;;;;;;22.71;34.12;102118.06;5064701;28;20024;-79
2021/04/21 09:27:34;;;;;;;20.95;11.07;;;;;;;22.52;34.26;102114.41;5054950;28;20060;-83
2021/04/21 09:30:21;;;;;;;17.75;8.18;;;;;;;22.27;35.05;102111.81;5052632;28;20047;-75
2021/04/21 09:32:53;;;;;;;15.68;7.63;;;;;;;22.35;34.62;102121.16;5056053;28;20046;-81
2021/04/21 09:35:24;;;;;;;18.92;7.18;;;;;;;22.77;34.27;102109.44;5065648;28;20020;-78
2021/04/21 09:38:07;;;;;;;16.27;8.27;;;;;;;22.77;34.08;102112.22;5072864;28;20043;-74
2021/04/21 09:40:49;;;;;;;14.07;8.52;;;;;;;22.55;34.38;102122.84;5072931;28;20024;-75
2021/04/21 09:43:36;;;;;;;20.40;8.35;;;;;;;22.17;34.75;102126.28;5072638;28;20028;-75
2021/04/21 09:46:04;;;;;;;18.30;8.88;;;;;;;22.89;33.99;102126.84;5071273;28;20367;-79
2021/04/21 09:48:37;;;;;;;21.40;10.23;;;;;;;23.02;33.97;102123.94;5072539;28;20028;-75
2021/04/21 09:51:14;;;;;;;14.77;8.93;;;;;;;22.87;34.01;102122.81;5074492;28;20028;-82
2021/04/21 09:53:44;;;;;;;14.68;8.45;;;;;;;22.85;34.00;102130.72;5074080;28;20046;-75
2021/04/21 09:56:16;;;;;;;15.82;7.70;;;;;;;22.85;34.29;102119.56;5073972;28;20017;-75
2021/04/21 09:58:53;;;;;;;20.90;6.90;;;;;;;22.56;34.37;102132.03;5072727;28;20433;-79
2021/04/21 10:01:19;;;;;;;17.75;6.80;;;;;;;22.99;33.72;102125.50;5074197;28;20029;-76
2021/04/21 10:03:46;;;;;;;13.70;5.97;;;;;;;22.97;32.85;102136.19;5073566;28;20031;-76
2021/04/21 10:06:21;;;;;;;14.02;5.28;;;;;;;22.98;33.04;102135.03;5073800;28;20021;-76
2021/04/21 10:08:48;;;;;;;11.80;5.35;;;;;;;22.62;33.61;102147.28;5073758;28;20554;-75
2021/04/21 10:11:14;;;;;;;14.77;5.28;;;;;;;22.95;33.11;102146.88;5073827;28;20050;-74
2021/04/21 10:13:54;;;;;;;20.90;5.90;;;;;;;22.57;33.88;102147.56;5073713;28;20095;-75
2021/04/21 10:16:21;;;;;;;28.40;6.97;;;;;;;23.10;33.18;102142.44;5073703;28;20081;-75
2021/04/21 10:18:48;;;;;;;13.70;4.78;;;;;;;22.95;32.73;102153.28;5073598;28;20092;-75
2021/04/21 10:21:15;;;;;;;19.40;5.32;;;;;;;23.15;32.81;102142.16;5073582;28;20032;-75
2021/04/21 10:23:44;;;;;;;16.77;5.68;;;;;;;23.24;32.60;102148.31;5073525;28;20105;-82
2021/04/21 10:26:12;;;;;;;19.83;5.13;;;;;;;23.15;32.41;102145.75;5073501;28;20013;-77
2021/04/21 10:28:40;;;;;;;17.58;5.03;;;;;;;23.19;32.33;102141.03;5073145;28;20063;-75
2021/04/21 10:31:10;;;;;;;12.77;4.68;;;;;;;22.87;33.02;102145.13;5073594;28;20020;-81
2021/04/21 10:33:36;;;;;;;10.30;3.67;;;;;;;23.06;32.72;102150.75;5073008;28;20081;-77
2021/04/21 10:36:03;;;;;;;12.13;4.20;;;;;;;23.15;32.45;102144.94;5073481;28;20482;-75
2021/04/21 10:38:29;;;;;;;15.55;4.93;;;;;;;23.14;32.72;102148.91;5073192;28;20095;-76
2021/04/21 10:41:20;;;;;;;11.30;3.95;;;;;;;22.84;33.44;102159.75;5073086;28;20387;-75
2021/04/21 10:43:47;;;;;;;17.35;5.30;;;;;;;23.40;32.79;102156.63;5073094;28;20036;-80
2021/04/21 10:46:12;;;;;;;14.48;5.13;;;;;;;23.37;32.32;102163.75;5077677;28;20028;-75
2021/04/21 10:48:44;;;;;;;17.88;5.03;;;;;;;23.35;32.38;102163.31;5080062;28;20035;-77
2021/04/21 10:51:33;;;;;;;12.27;4.63;;;;;;;22.51;32.95;102174.88;5087961;28;20364;-77
2021/04/21 10:54:09;;;;;;;14.52;4.00;;;;;;;22.97;32.34;102172.41;5075615;28;20028;-77
2021/04/21 10:56:37;;;;;;;19.58;5.50;;;;;;;23.49;31.56;102165.56;5054850;28;20025;-78
2021/04/21 10:59:04;;;;;;;12.38;4.40;;;;;;;23.69;31.76;102161.66;5055122;28;20029;-78
2021/04/21 11:01:38;;;;;;;12.43;4.03;;;;;;;23.63;32.00;102165.91;5060422;28;20024;-74
2021/04/21 11:04:06;;;;;;;16.33;5.10;;;;;;;23.56;31.96;102168.50;5072081;28;20032;-75
2021/04/21 11:06:37;;;;;;;12.82;4.95;;;;;;;23.52;31.19;102159.28;5072099;28;20027;-73
2021/04/21 11:09:03;;;;;;;15.45;4.97;;;;;;;23.69;31.71;102158.03;5071178;28;20111;-74
2021/04/21 11:11:37;;;;;;;20.23;5.85;;;;;;;23.55;31.63;102164.13;5071330;28;20032;-76
2021/04/21 11:14:03;;;;;;;20.05;4.25;;;;;;;23.62;31.60;102172.66;5071613;28;20381;-75
2021/04/21 11:16:35;;;;;;;18.70;3.95;;;;;;;23.71;30.93;102170.44;5071155;28;20032;-73
2021/04/21 11:19:18;;;;;;;12.88;4.80;;;;;;;23.30;30.88;102176.75;5071439;28;20028;-74
2021/04/21 11:22:08;;;;;;;16.38;5.35;;;;;;;23.57;31.02;102177.69;5070895;28;20060;-74
2021/04/21 11:24:35;;;;;;;13.20;4.68;;;;;;;23.76;30.66;102172.94;5071648;28;20063;-73
2021/04/21 11:27:01;;;;;;;13.93;3.83;;;;;;;23.69;30.67;102174.78;5071166;28;20032;-73
2021/04/21 11:29:26;;;;;;;22.77;6.28;;;;;;;23.85;30.26;102171.91;5070319;28;20506;-73
2021/04/21 11:31:52;;;;;;;9.90;4.53;;;;;;;23.70;30.74;102174.41;5071717;28;20021;-75
2021/04/21 11:34:38;;;;;;;12.43;4.93;;;;;;;23.49;30.64;102177.53;5071510;28;20406;-76
2021/04/21 11:37:19;;;;;;;17.70;4.80;;;;;;;23.92;31.25;102172.03;5071499;28;20016;-77
2021/04/21 11:39:46;;;;;;;18.98;5.18;;;;;;;24.18;30.81;102166.56;5071651;28;20040;-75
2021/04/21 11:42:28;;;;;;;16.40;4.90;;;;;;;24.35;30.31;102176.44;5071538;28;20051;-73
2021/04/21 11:44:57;;;;;;;16.20;4.70;;;;;;;24.21;30.18;102174.19;5071397;28;20088;-75
2021/04/21 11:47:30;;;;;;;21.65;6.13;;;;;;;23.92;30.86;102172.03;5071321;28;20033;-74